• Join FlightAware (Why Join?)
  • Login
  • US Flag 
07:57AM EST


 

Airport Tracker/Info


-or-


 

Live Flight TrackerFlight Track Log ✈ N450S ✈ 18-Jul-2013 ✈ KBKL - KSMD

Flight Track Log - Related Links

Times and Time Zones

All times are in EDT time to prevent confusion due to time zone crossing. See the N450S flight status page for this flight to view local times or setup timezone preferences in your user account.

Time Position Orientation Groundspeed Altitude Reporting Facility
EDT Latitude Longitude Course Direction KTS MPH feet Rate Location/Type
01:57PM 41.5083 -81.7033 311° West 143 165 1,000  Level Cleveland Center
01:58PM 41.5411 -81.7539 311° West 195 224 2,000 420 Climbing Cleveland Center
01:59PM 41.5844 -81.8017 320° Northwest 226 260 2,000 600 Level Cleveland Center
02:00PM 41.5897 -81.8853 275° West 190 219 3,300 1,560 Climbing Cleveland Center
02:01PM 41.5808 -81.9433 258° West 167 192 5,200 1,860 Climbing Cleveland Center
02:02PM 41.5717 -82.0042 259° West 164 189 6,900 1,560 Climbing Cleveland Center
02:03PM 41.5667 -82.0653 264° West 179 206 8,600 1,560 Climbing Cleveland Center
02:04PM 41.5575 -82.1289 259° West 179 206 10,300 1,680 Climbing Cleveland Center
02:05PM 41.5506 -82.1925 262° West 179 206 12,000 1,680 Climbing Cleveland Center
02:06PM 41.5433 -82.2589 262° West 179 206 13,700 1,680 Climbing Cleveland Center
02:07PM 41.5339 -82.3222 259° West 179 206 15,400 1,140 Climbing Cleveland Center
02:08PM 41.5267 -82.3917 262° West 187 215 16,000 300 Climbing Cleveland Center
02:09PM 41.5128 -82.4825 258° West 216 249 16,000  Level Cleveland Center
02:10PM 41.5028 -82.5767 262° West 254 292 16,000  Level Cleveland Center
02:11PM 41.4906 -82.6733 260° West 260 299 16,000  Level Cleveland Center
02:12PM 41.4783 -82.7672 260° West 260 299 16,000  Level Cleveland Center
02:13PM 41.4661 -82.8581 260° West 260 299 16,000  Level Cleveland Center
02:14PM 41.4517 -82.9547 259° West 260 299 16,000  Level Cleveland Center
02:15PM 41.4392 -83.0511 260° West 260 299 16,000  Level Cleveland Center
02:16PM 41.4269 -83.1419 260° West 260 299 16,000  Level Cleveland Center
02:17PM 41.4164 -83.2303 261° West 260 299 16,000  Level Cleveland Center
02:18PM 41.4039 -83.3239 260° West 260 299 16,000  Level Cleveland Center
02:19PM 41.3911 -83.4175 260° West 260 299 16,000  Level Cleveland Center
02:20PM 41.3783 -83.5111 260° West 260 299 16,000  Level Cleveland Center
02:21PM 41.3633 -83.6072 258° West 260 299 16,000  Level Cleveland Center
02:22PM 41.3506 -83.7006 260° West 260 299 16,000 -360 Level Cleveland Center
02:23PM 41.3394 -83.7969 261° West 260 299 15,300 -1,080 Descending Cleveland Center
02:24PM 41.3278 -83.9097 262° West 270 311 13,900 -1,260 Descending Cleveland Center
02:25PM 41.3194 -83.9711 260° West 276 318 13,200 -1,080 Descending Chicago Center
02:26PM 41.3039 -84.0739 259° West 281 323 12,000 -1,500 Descending Chicago Center
02:27PM 41.2861 -84.1944 259° West 280 322 10,100 -1,680 Descending Chicago Center
02:28PM 41.2719 -84.2919 259° West 275 316 8,600 -1,620 Descending Chicago Center
02:29PM 41.2586 -84.3833 259° West 264 304 6,800 -1,320 Descending Chicago Center
02:30PM 41.2453 -84.4697 258° West 253 291 5,900 -960 Descending Chicago Center
02:31PM 41.2350 -84.5461 260° West 233 268 4,900 -960 Descending Chicago Center
02:32PM 41.2236 -84.6244 259° West 222 255 4,000 -840 Descending Chicago Center
02:33PM 41.2092 -84.7192 259° West 219 252 3,200 -540 Descending Chicago Center
02:34PM 41.1978 -84.7961 259° West 216 249 3,000 -120 Descending Chicago Center
02:35PM 41.1872 -84.8703 259° West 211 243 3,000  Level Chicago Center
02:36PM 41.1756 -84.9408 258° West 205 236 3,000  Level Chicago Center
02:37PM 41.1658 -85.0094 259° West 197 227 3,000 -120 Level Chicago Center
02:38PM 41.1522 -85.0894 257° West 194 223 2,800 -240 Descending Chicago Center